sensor_id;sensor_type;location;lat;lon;timestamp;temperature;humidity
42085;DHT22;27746;52.228;20.890;2023-08-24T12:03:34;24.00;90.40
42085;DHT22;27746;52.228;20.890;2023-08-24T18:03:13;33.90;58.10
42085;DHT22;27746;52.228;20.890;2023-08-24T18:05:40;24.90;73.00
42085;DHT22;27746;52.228;20.890;2023-08-24T18:08:09;24.60;72.80
42085;DHT22;27746;52.228;20.890;2023-08-24T18:10:36;24.60;72.80
42085;DHT22;27746;52.228;20.890;2023-08-24T18:13:03;24.50;72.70
42085;DHT22;27746;52.228;20.890;2023-08-24T18:15:33;24.50;72.70
42085;DHT22;27746;52.228;20.890;2023-08-24T18:18:03;24.40;73.40
42085;DHT22;27746;52.228;20.890;2023-08-24T18:20:31;24.40;73.30
42085;DHT22;27746;52.228;20.890;2023-08-24T18:22:58;24.30;73.10
42085;DHT22;27746;52.228;20.890;2023-08-24T18:25:26;24.30;73.40
42085;DHT22;27746;52.228;20.890;2023-08-24T18:27:53;24.20;73.60
42085;DHT22;27746;52.228;20.890;2023-08-24T18:30:20;24.20;74.10
42085;DHT22;27746;52.228;20.890;2023-08-24T19:49:06;24.10;74.00
42085;DHT22;27746;52.228;20.890;2023-08-24T19:51:34;23.20;77.90
42085;DHT22;27746;52.228;20.890;2023-08-24T19:54:01;23.20;78.60
42085;DHT22;27746;52.228;20.890;2023-08-24T19:56:28;23.20;78.50
42085;DHT22;27746;52.228;20.890;2023-08-24T19:58:54;23.10;78.60
42085;DHT22;27746;52.228;20.890;2023-08-24T20:01:23;23.10;78.70
42085;DHT22;27746;52.228;20.890;2023-08-24T20:03:50;23.00;78.90
42085;DHT22;27746;52.228;20.890;2023-08-24T20:06:21;23.00;79.00
42085;DHT22;27746;52.228;20.890;2023-08-24T20:08:49;23.00;79.00
42085;DHT22;27746;52.228;20.890;2023-08-24T20:11:16;23.00;80.10
42085;DHT22;27746;52.228;20.890;2023-08-24T20:13:43;23.00;80.10
42085;DHT22;27746;52.228;20.890;2023-08-24T20:16:10;22.90;80.00
42085;DHT22;27746;52.228;20.890;2023-08-24T20:18:39;22.90;80.30
42085;DHT22;27746;52.228;20.890;2023-08-24T20:21:09;22.80;80.30
42085;DHT22;27746;52.228;20.890;2023-08-24T20:23:37;22.80;80.60
42085;DHT22;27746;52.228;20.890;2023-08-24T20:26:06;22.80;80.80
42085;DHT22;27746;52.228;20.890;2023-08-24T20:28:36;22.70;81.10
42085;DHT22;27746;52.228;20.890;2023-08-24T20:31:03;22.70;81.40
42085;DHT22;27746;52.228;20.890;2023-08-24T20:33:30;22.60;81.50
42085;DHT22;27746;52.228;20.890;2023-08-24T20:35:58;22.50;81.10
42085;DHT22;27746;52.228;20.890;2023-08-24T20:38:26;22.50;80.90
42085;DHT22;27746;52.228;20.890;2023-08-24T20:40:52;22.50;80.90
42085;DHT22;27746;52.228;20.890;2023-08-24T20:43:19;22.50;81.10
42085;DHT22;27746;52.228;20.890;2023-08-24T20:45:47;22.50;81.80
42085;DHT22;27746;52.228;20.890;2023-08-24T20:48:14;22.50;81.60
42085;DHT22;27746;52.228;20.890;2023-08-24T20:50:41;22.50;81.20
42085;DHT22;27746;52.228;20.890;2023-08-24T20:53:09;22.50;81.00
42085;DHT22;27746;52.228;20.890;2023-08-24T20:55:36;22.50;81.20
42085;DHT22;27746;52.228;20.890;2023-08-24T20:58:03;22.40;81.60
42085;DHT22;27746;52.228;20.890;2023-08-24T21:00:31;22.40;82.10
42085;DHT22;27746;52.228;20.890;2023-08-24T21:02:58;22.40;82.40
42085;DHT22;27746;52.228;20.890;2023-08-24T21:05:25;22.30;82.80
42085;DHT22;27746;52.228;20.890;2023-08-24T21:07:52;22.30;82.70
42085;DHT22;27746;52.228;20.890;2023-08-24T21:10:21;22.30;81.80
42085;DHT22;27746;52.228;20.890;2023-08-24T21:12:48;22.20;81.10
42085;DHT22;27746;52.228;20.890;2023-08-24T21:15:16;22.20;81.10
42085;DHT22;27746;52.228;20.890;2023-08-24T21:17:43;22.20;82.80
42085;DHT22;27746;52.228;20.890;2023-08-24T21:20:10;22.20;82.90
42085;DHT22;27746;52.228;20.890;2023-08-24T21:22:37;22.20;83.00
42085;DHT22;27746;52.228;20.890;2023-08-24T21:25:05;22.20;83.50
42085;DHT22;27746;52.228;20.890;2023-08-24T21:27:33;22.10;83.80
42085;DHT22;27746;52.228;20.890;2023-08-24T21:30:00;22.10;84.00
42085;DHT22;27746;52.228;20.890;2023-08-24T21:32:27;22.00;84.30
42085;DHT22;27746;52.228;20.890;2023-08-24T21:34:54;21.90;84.30
42085;DHT22;27746;52.228;20.890;2023-08-24T21:37:21;21.90;85.20
42085;DHT22;27746;52.228;20.890;2023-08-24T21:39:48;21.80;85.10
42085;DHT22;27746;52.228;20.890;2023-08-24T21:42:15;21.80;85.50
42085;DHT22;27746;52.228;20.890;2023-08-24T21:44:43;21.80;85.80
42085;DHT22;27746;52.228;20.890;2023-08-24T21:47:10;21.80;85.80
42085;DHT22;27746;52.228;20.890;2023-08-24T21:49:37;21.80;85.60
42085;DHT22;27746;52.228;20.890;2023-08-24T21:52:04;21.80;86.30
42085;DHT22;27746;52.228;20.890;2023-08-24T21:54:30;21.70;86.50
42085;DHT22;27746;52.228;20.890;2023-08-24T21:56:57;21.70;86.60
42085;DHT22;27746;52.228;20.890;2023-08-24T21:59:24;21.70;86.90
42085;DHT22;27746;52.228;20.890;2023-08-24T22:01:52;21.60;87.10
42085;DHT22;27746;52.228;20.890;2023-08-24T22:04:19;21.60;87.20
42085;DHT22;27746;52.228;20.890;2023-08-24T22:06:46;21.60;87.40
42085;DHT22;27746;52.228;20.890;2023-08-24T22:09:13;21.50;87.50
42085;DHT22;27746;52.228;20.890;2023-08-24T22:11:40;21.40;87.70
42085;DHT22;27746;52.228;20.890;2023-08-24T22:14:07;21.40;87.60
42085;DHT22;27746;52.228;20.890;2023-08-24T22:16:34;21.40;88.10
42085;DHT22;27746;52.228;20.890;2023-08-24T22:19:02;21.40;88.70
42085;DHT22;27746;52.228;20.890;2023-08-24T22:21:29;21.30;88.90
42085;DHT22;27746;52.228;20.890;2023-08-24T22:23:56;21.20;88.50
42085;DHT22;27746;52.228;20.890;2023-08-24T22:26:23;21.20;88.40
42085;DHT22;27746;52.228;20.890;2023-08-24T22:28:50;21.20;88.30
42085;DHT22;27746;52.228;20.890;2023-08-24T22:31:17;21.20;88.30
42085;DHT22;27746;52.228;20.890;2023-08-24T22:33:44;21.20;87.90
42085;DHT22;27746;52.228;20.890;2023-08-24T22:36:12;21.20;87.70
42085;DHT22;27746;52.228;20.890;2023-08-24T22:38:39;21.20;87.60
42085;DHT22;27746;52.228;20.890;2023-08-24T22:41:06;21.20;87.80
42085;DHT22;27746;52.228;20.890;2023-08-24T22:43:33;21.20;88.30
42085;DHT22;27746;52.228;20.890;2023-08-24T22:46:00;21.20;88.20
42085;DHT22;27746;52.228;20.890;2023-08-24T22:48:27;21.20;87.90
42085;DHT22;27746;52.228;20.890;2023-08-24T22:50:53;21.20;87.90
42085;DHT22;27746;52.228;20.890;2023-08-24T22:53:22;21.10;87.20
42085;DHT22;27746;52.228;20.890;2023-08-24T22:55:49;21.10;86.80
42085;DHT22;27746;52.228;20.890;2023-08-24T22:58:16;21.10;86.70
42085;DHT22;27746;52.228;20.890;2023-08-24T23:00:42;21.10;86.90
42085;DHT22;27746;52.228;20.890;2023-08-24T23:03:09;21.10;86.80
42085;DHT22;27746;52.228;20.890;2023-08-24T23:05:37;21.10;87.30
42085;DHT22;27746;52.228;20.890;2023-08-24T23:08:04;21.10;86.60
42085;DHT22;27746;52.228;20.890;2023-08-24T23:10:33;21.10;86.60
42085;DHT22;27746;52.228;20.890;2023-08-24T23:13:00;21.10;86.80
42085;DHT22;27746;52.228;20.890;2023-08-24T23:15:27;21.10;86.60
42085;DHT22;27746;52.228;20.890;2023-08-24T23:17:55;21.00;86.60
42085;DHT22;27746;52.228;20.890;2023-08-24T23:20:22;21.00;86.60
42085;DHT22;27746;52.228;20.890;2023-08-24T23:22:48;21.00;86.50
42085;DHT22;27746;52.228;20.890;2023-08-24T23:25:15;21.00;86.60
42085;DHT22;27746;52.228;20.890;2023-08-24T23:27:43;21.00;87.60
42085;DHT22;27746;52.228;20.890;2023-08-24T23:30:11;21.00;87.20
42085;DHT22;27746;52.228;20.890;2023-08-24T23:32:38;21.00;87.00
42085;DHT22;27746;52.228;20.890;2023-08-24T23:35:06;21.00;86.90
42085;DHT22;27746;52.228;20.890;2023-08-24T23:37:36;21.00;86.80
42085;DHT22;27746;52.228;20.890;2023-08-24T23:40:04;20.90;87.70
42085;DHT22;27746;52.228;20.890;2023-08-24T23:42:31;20.90;88.30
42085;DHT22;27746;52.228;20.890;2023-08-24T23:44:59;20.80;88.80
42085;DHT22;27746;52.228;20.890;2023-08-24T23:47:26;20.80;89.10
42085;DHT22;27746;52.228;20.890;2023-08-24T23:49:53;20.70;89.70
42085;DHT22;27746;52.228;20.890;2023-08-24T23:52:20;20.70;90.10
42085;DHT22;27746;52.228;20.890;2023-08-24T23:54:47;20.60;90.20
42085;DHT22;27746;52.228;20.890;2023-08-24T23:57:14;20.50;90.40
42085;DHT22;27746;52.228;20.890;2023-08-24T23:59:43;20.50;90.50
